Time;durP1;ratioP1;P1;durP2;ratioP2;P2;SDS_P1;SDS_P2;PMS_P1;PMS_P2;Temp;Humidity;BMP_temperature;BMP_pressure;BME280_temperature;BME280_humidity;BME280_pressure;Samples;Min_cycle;Max_cycle;Signal;HPM_P1;HPM_P2
2024/01/06 00:00:28;;;;;;;20.40;13.23;;;3.50;99.90;;;;;;5075365;28;20048;-78
2024/01/06 00:02:54;;;;;;;21.98;12.93;;;3.50;99.90;;;;;;5075317;28;20052;-77
2024/01/06 00:05:19;;;;;;;18.25;11.48;;;3.50;99.90;;;;;;5040849;28;20045;-77
2024/01/06 00:07:45;;;;;;;18.83;11.60;;;3.50;99.90;;;;;;5075207;28;20178;-77
2024/01/06 00:10:10;;;;;;;17.27;11.00;;;3.50;99.90;;;;;;5075240;28;20174;-77
2024/01/06 00:12:36;;;;;;;18.15;11.50;;;3.50;99.90;;;;;;5075159;28;20076;-77
2024/01/06 00:15:02;;;;;;;19.67;12.40;;;3.50;99.90;;;;;;5074992;28;20543;-77
2024/01/06 00:17:28;;;;;;;18.48;12.10;;;3.50;99.90;;;;;;5075067;28;20087;-78
2024/01/06 00:19:54;;;;;;;18.38;11.15;;;3.50;99.90;;;;;;5075224;28;20088;-77
2024/01/06 00:22:20;;;;;;;23.02;13.50;;;3.50;99.90;;;;;;5075551;28;20194;-77
2024/01/06 00:24:46;;;;;;;18.63;11.65;;;3.50;99.90;;;;;;5075413;28;20497;-78
2024/01/06 00:27:13;;;;;;;19.98;12.48;;;3.40;99.90;;;;;;5075174;28;20137;-77
2024/01/06 00:29:39;;;;;;;20.98;13.32;;;3.50;99.90;;;;;;5074944;28;20048;-77
2024/01/06 00:32:05;;;;;;;19.50;12.82;;;3.50;99.90;;;;;;5074897;28;20048;-77
2024/01/06 00:34:31;;;;;;;19.50;12.38;;;3.40;99.90;;;;;;5073553;28;20549;-77
2024/01/06 00:36:56;;;;;;;19.85;12.27;;;3.40;99.90;;;;;;5074011;28;20049;-77
2024/01/06 00:39:22;;;;;;;20.35;12.60;;;3.40;99.90;;;;;;5073393;28;20090;-77
2024/01/06 00:41:47;;;;;;;22.13;12.55;;;3.40;99.90;;;;;;5073454;28;20052;-77
2024/01/06 00:44:13;;;;;;;22.73;13.15;;;3.40;99.90;;;;;;5073435;28;20055;-77
2024/01/06 00:46:39;;;;;;;18.23;11.75;;;3.40;99.90;;;;;;5073343;28;20080;-77
2024/01/06 00:49:05;;;;;;;23.33;12.82;;;3.40;99.90;;;;;;5073416;28;20499;-77
2024/01/06 00:51:31;;;;;;;20.98;13.50;;;3.40;99.90;;;;;;5073549;28;20048;-77
2024/01/06 00:53:56;;;;;;;17.50;11.30;;;3.50;99.90;;;;;;5073866;28;20400;-77
2024/01/06 00:56:22;;;;;;;24.17;13.15;;;3.50;99.90;;;;;;5074682;28;20048;-78
2024/01/06 00:58:48;;;;;;;21.30;13.38;;;3.50;99.90;;;;;;5074318;28;20045;-77
2024/01/06 01:01:14;;;;;;;22.80;12.82;;;3.50;99.90;;;;;;5074101;28;20078;-78
2024/01/06 01:03:39;;;;;;;21.58;12.90;;;3.50;99.90;;;;;;5074180;28;20051;-78
2024/01/06 01:06:05;;;;;;;17.20;12.20;;;3.50;99.90;;;;;;5074284;28;20052;-77
2024/01/06 01:08:31;;;;;;;17.75;11.45;;;3.50;99.90;;;;;;5074142;28;20066;-78
2024/01/06 01:10:57;;;;;;;19.83;11.68;;;3.40;99.90;;;;;;5072807;28;20057;-78
2024/01/06 01:13:23;;;;;;;20.10;12.32;;;3.40;99.90;;;;;;5072615;28;20055;-77
2024/01/06 01:15:49;;;;;;;18.15;11.30;;;3.40;99.90;;;;;;5073840;28;20052;-77
2024/01/06 01:18:15;;;;;;;17.63;11.20;;;3.40;99.90;;;;;;5072873;28;20567;-78
2024/01/06 01:20:43;;;;;;;21.08;11.75;;;3.40;99.90;;;;;;5072339;28;20149;-78
2024/01/06 01:23:09;;;;;;;31.90;11.13;;;3.40;99.90;;;;;;5073798;28;20388;-77
2024/01/06 01:25:34;;;;;;;17.73;11.05;;;3.60;99.90;;;;;;5073772;28;20050;-77
2024/01/06 01:28:00;;;;;;;17.70;10.40;;;3.40;99.90;;;;;;5073527;28;20381;-77
2024/01/06 01:30:27;;;;;;;18.02;11.38;;;3.40;99.90;;;;;;5072809;28;20045;-78
2024/01/06 01:32:52;;;;;;;17.60;10.95;;;3.40;99.90;;;;;;5073681;28;20087;-77
2024/01/06 01:35:18;;;;;;;23.80;11.95;;;3.30;99.90;;;;;;5073616;28;20079;-78
2024/01/06 01:37:44;;;;;;;17.63;10.80;;;3.30;99.90;;;;;;5072647;28;20052;-78
2024/01/06 01:40:10;;;;;;;17.00;10.65;;;3.30;99.90;;;;;;5073380;28;20135;-78
2024/01/06 01:42:35;;;;;;;17.63;11.05;;;3.30;99.90;;;;;;5073491;28;20095;-77
2024/01/06 01:45:01;;;;;;;19.48;11.35;;;3.30;99.90;;;;;;5073426;28;20068;-78
2024/01/06 01:47:27;;;;;;;14.98;9.32;;;3.20;99.90;;;;;;5073311;28;20040;-77
2024/01/06 01:49:54;;;;;;;16.55;10.60;;;3.20;99.90;;;;;;5073393;28;20049;-77
2024/01/06 01:52:20;;;;;;;20.27;11.60;;;3.20;99.90;;;;;;5073401;28;20056;-77
2024/01/06 01:54:47;;;;;;;17.52;10.93;;;3.20;99.90;;;;;;5073249;28;20055;-78
2024/01/06 01:57:14;;;;;;;16.25;10.10;;;3.20;99.90;;;;;;5073252;28;20119;-77
2024/01/06 01:59:41;;;;;;;17.15;10.10;;;3.20;99.90;;;;;;5073148;28;20048;-78
2024/01/06 02:02:07;;;;;;;16.25;9.75;;;3.20;99.90;;;;;;5073105;28;20056;-78
2024/01/06 02:04:33;;;;;;;16.90;10.10;;;3.20;99.90;;;;;;5073150;28;20049;-78
2024/01/06 02:06:59;;;;;;;15.95;9.25;;;3.20;99.90;;;;;;5072629;28;20047;-78
2024/01/06 02:09:28;;;;;;;18.40;10.27;;;3.20;99.90;;;;;;5072847;28;20059;-78
2024/01/06 02:11:54;;;;;;;18.08;10.98;;;3.10;99.90;;;;;;5072112;28;20051;-78
2024/01/06 02:14:20;;;;;;;17.83;10.23;;;3.30;99.90;;;;;;5072005;28;20487;-77
2024/01/06 02:16:45;;;;;;;19.58;11.52;;;3.20;99.90;;;;;;5071531;28;20146;-78
2024/01/06 02:19:13;;;;;;;18.08;10.63;;;3.10;99.90;;;;;;5071424;28;20040;-78
2024/01/06 02:21:47;;;;;;;16.23;9.90;;;3.10;99.90;;;;;;5071028;28;20065;-78
2024/01/06 02:24:13;;;;;;;22.38;11.20;;;3.00;99.90;;;;;;5071642;28;20052;-78
2024/01/06 02:26:39;;;;;;;19.27;11.50;;;3.20;99.90;;;;;;5072810;28;20046;-78
2024/01/06 02:29:04;;;;;;;20.20;11.40;;;3.00;99.90;;;;;;5071459;28;20050;-77
2024/01/06 02:31:30;;;;;;;18.38;11.55;;;2.90;99.90;;;;;;5071603;28;20480;-78
2024/01/06 02:33:55;;;;;;;20.45;12.07;;;2.90;99.90;;;;;;5071424;28;20056;-78
2024/01/06 02:36:21;;;;;;;20.20;11.68;;;2.90;99.90;;;;;;5071527;28;20450;-78
2024/01/06 02:38:47;;;;;;;20.30;12.32;;;2.90;99.90;;;;;;5071588;28;20369;-78
2024/01/06 02:41:12;;;;;;;24.70;13.27;;;2.90;99.90;;;;;;5071561;28;20407;-77
2024/01/06 02:43:38;;;;;;;22.10;13.05;;;2.90;99.90;;;;;;5071267;28;20098;-78
2024/01/06 02:46:03;;;;;;;19.67;11.40;;;2.90;99.90;;;;;;5072004;28;20047;-78
2024/01/06 02:48:30;;;;;;;24.05;12.45;;;2.90;99.90;;;;;;5071811;28;20377;-77
2024/01/06 02:50:56;;;;;;;19.58;11.45;;;2.90;99.90;;;;;;5071201;28;20052;-77
2024/01/06 02:53:22;;;;;;;20.30;11.73;;;3.00;99.90;;;;;;5071336;28;20048;-78
2024/01/06 02:55:47;;;;;;;25.13;13.40;;;3.00;99.90;;;;;;5071316;28;20045;-77
2024/01/06 02:58:13;;;;;;;22.25;13.18;;;3.00;99.90;;;;;;5071612;28;20070;-77
2024/01/06 03:00:39;;;;;;;24.45;13.63;;;2.90;99.90;;;;;;5071511;28;20135;-78
2024/01/06 03:03:04;;;;;;;24.15;13.30;;;2.90;99.90;;;;;;5071709;28;20161;-77
2024/01/06 03:05:30;;;;;;;27.02;13.75;;;2.90;99.90;;;;;;5071203;28;20045;-78
2024/01/06 03:07:55;;;;;;;23.83;13.02;;;2.90;99.90;;;;;;5072406;28;20059;-77
2024/01/06 03:10:21;;;;;;;23.63;12.77;;;2.90;99.90;;;;;;5054845;28;20049;-77
2024/01/06 03:12:47;;;;;;;22.25;11.82;;;2.90;99.90;;;;;;5071432;28;20041;-78
2024/01/06 03:15:13;;;;;;;25.15;13.75;;;3.10;99.90;;;;;;5071629;28;20048;-78
2024/01/06 03:17:38;;;;;;;21.77;12.45;;;2.90;99.90;;;;;;5072948;28;20040;-77
2024/01/06 03:20:05;;;;;;;21.33;11.85;;;2.90;99.90;;;;;;5071019;28;20053;-78
2024/01/06 03:22:30;;;;;;;24.92;13.35;;;2.90;99.90;;;;;;5070835;28;20561;-78
2024/01/06 03:24:56;;;;;;;22.65;12.80;;;2.80;99.90;;;;;;5071344;28;20048;-78
2024/01/06 03:27:22;;;;;;;21.58;12.30;;;2.90;99.90;;;;;;5071090;28;20044;-78
2024/01/06 03:29:47;;;;;;;24.15;12.68;;;2.90;99.90;;;;;;5070811;28;20098;-78
2024/01/06 03:32:13;;;;;;;24.15;13.63;;;2.90;99.90;;;;;;5072935;28;20051;-77
2024/01/06 03:34:41;;;;;;;19.83;11.80;;;2.90;99.90;;;;;;5074517;28;20044;-77
2024/01/06 03:37:06;;;;;;;22.73;12.27;;;2.90;99.90;;;;;;5074447;28;20044;-78
2024/01/06 03:39:32;;;;;;;20.23;10.93;;;2.90;99.90;;;;;;5074533;28;20050;-77
2024/01/06 03:41:57;;;;;;;22.95;11.48;;;2.90;99.90;;;;;;5074250;28;20109;-77
2024/01/06 03:44:23;;;;;;;19.95;11.32;;;2.90;99.90;;;;;;5074188;28;20045;-77
2024/01/06 03:46:49;;;;;;;18.17;9.75;;;2.90;99.90;;;;;;5074378;28;20089;-77
2024/01/06 03:49:14;;;;;;;19.60;11.20;;;2.80;99.90;;;;;;5074392;28;20041;-78
2024/01/06 03:51:40;;;;;;;17.73;10.55;;;2.80;99.90;;;;;;5074252;28;20052;-78
2024/01/06 03:54:06;;;;;;;17.40;11.07;;;2.80;99.90;;;;;;5074538;28;20110;-78
2024/01/06 03:56:31;;;;;;;17.10;9.88;;;2.80;99.90;;;;;;5074281;28;20175;-78
2024/01/06 03:58:57;;;;;;;16.40;9.40;;;2.80;99.90;;;;;;5074285;28;20043;-77
2024/01/06 04:01:22;;;;;;;16.27;9.30;;;2.80;99.90;;;;;;5073959;28;20040;-77
2024/01/06 04:03:48;;;;;;;15.73;9.95;;;2.80;99.90;;;;;;5074099;28;20099;-78
2024/01/06 04:06:14;;;;;;;19.35;10.55;;;2.70;99.90;;;;;;5074374;28;20094;-77
2024/01/06 04:08:42;;;;;;;16.67;9.73;;;2.70;99.90;;;;;;5073760;28;20504;-77
2024/01/06 04:11:08;;;;;;;18.75;10.32;;;2.80;99.90;;;;;;5074048;28;20052;-77
2024/01/06 04:13:34;;;;;;;17.05;9.60;;;2.80;99.90;;;;;;5074070;28;20388;-77
2024/01/06 04:15:59;;;;;;;17.13;10.23;;;2.80;99.90;;;;;;5073860;28;20614;-78
2024/01/06 04:18:25;;;;;;;19.15;10.07;;;2.80;99.90;;;;;;5073391;28;20068;-77
2024/01/06 04:20:51;;;;;;;19.25;10.30;;;2.80;99.90;;;;;;5073416;28;20053;-77
2024/01/06 04:23:16;;;;;;;19.60;10.10;;;2.80;99.90;;;;;;5073658;28;20074;-78
2024/01/06 04:25:42;;;;;;;15.77;9.30;;;2.80;99.90;;;;;;5073611;28;20408;-78
2024/01/06 04:28:07;;;;;;;17.52;10.15;;;2.90;99.90;;;;;;5073670;28;20048;-77
2024/01/06 04:30:33;;;;;;;16.90;10.05;;;2.80;99.90;;;;;;5073323;28;20197;-77
2024/01/06 04:32:59;;;;;;;15.88;9.57;;;2.90;99.90;;;;;;5073823;28;20044;-77
2024/01/06 04:35:25;;;;;;;16.88;9.68;;;2.80;99.90;;;;;;5073428;28;20126;-77
2024/01/06 04:37:51;;;;;;;15.35;9.23;;;2.90;99.90;;;;;;5069464;28;20046;-77
2024/01/06 04:40:17;;;;;;;16.00;8.98;;;2.70;99.90;;;;;;5061034;28;20404;-78
2024/01/06 04:42:42;;;;;;;16.55;9.27;;;2.70;99.90;;;;;;5058591;28;20041;-78
2024/01/06 04:45:08;;;;;;;17.02;9.55;;;2.70;99.90;;;;;;5073344;28;20041;-78
2024/01/06 04:47:34;;;;;;;17.67;9.75;;;2.70;99.90;;;;;;5073369;28;20051;-78
2024/01/06 04:49:59;;;;;;;15.75;9.18;;;2.70;99.90;;;;;;5073571;28;20464;-78
2024/01/06 04:52:25;;;;;;;17.13;9.20;;;2.70;99.90;;;;;;5073098;28;20117;-78
2024/01/06 04:54:51;;;;;;;16.02;8.95;;;2.70;99.90;;;;;;5073175;28;20193;-78
2024/01/06 04:57:16;;;;;;;14.48;8.93;;;2.70;99.90;;;;;;5073392;28;20048;-77
2024/01/06 04:59:42;;;;;;;15.48;9.23;;;2.70;99.90;;;;;;5073055;28;20435;-78
2024/01/06 05:02:07;;;;;;;14.88;9.80;;;2.70;99.90;;;;;;5073292;28;20044;-78
2024/01/06 05:04:33;;;;;;;15.77;9.35;;;2.70;99.90;;;;;;5056236;28;20063;-78
2024/01/06 05:06:59;;;;;;;18.05;8.63;;;2.70;99.90;;;;;;5072968;28;20040;-78
2024/01/06 05:09:27;;;;;;;18.80;10.13;;;2.70;99.90;;;;;;5072593;28;20045;-78
2024/01/06 05:11:53;;;;;;;16.17;9.63;;;2.70;99.90;;;;;;5073159;28;20469;-78
2024/01/06 05:14:19;;;;;;;18.05;8.95;;;2.70;99.90;;;;;;5072944;28;20048;-78
2024/01/06 05:16:44;;;;;;;19.35;8.88;;;2.70;99.90;;;;;;5072971;28;20063;-78
2024/01/06 05:19:10;;;;;;;15.60;9.40;;;2.70;99.90;;;;;;5072729;28;20052;-78
2024/01/06 05:21:36;;;;;;;14.65;9.45;;;2.70;99.90;;;;;;5072372;28;20063;-78
2024/01/06 05:24:03;;;;;;;16.15;9.60;;;2.70;99.90;;;;;;5072636;28;20127;-78
2024/01/06 05:26:28;;;;;;;16.50;8.73;;;2.70;99.90;;;;;;5072477;28;20048;-78
2024/01/06 05:28:54;;;;;;;17.10;10.00;;;2.70;99.90;;;;;;5072604;28;20048;-78
2024/01/06 05:31:20;;;;;;;14.10;9.05;;;2.70;99.90;;;;;;5072726;28;20476;-78
2024/01/06 05:33:45;;;;;;;14.15;8.80;;;2.70;99.90;;;;;;5072854;28;20086;-78
2024/01/06 05:36:11;;;;;;;16.13;9.20;;;2.70;99.90;;;;;;5055839;28;20052;-78
2024/01/06 05:38:37;;;;;;;15.40;10.40;;;2.70;99.90;;;;;;5072506;28;20094;-78
2024/01/06 05:41:02;;;;;;;16.20;8.90;;;2.70;99.90;;;;;;5072437;28;20044;-78
2024/01/06 05:43:28;;;;;;;16.63;10.32;;;2.70;99.90;;;;;;5072023;28;20052;-78
2024/01/06 05:45:54;;;;;;;13.90;8.75;;;2.70;99.90;;;;;;5072593;28;20052;-78
2024/01/06 05:48:19;;;;;;;19.08;10.13;;;2.60;99.90;;;;;;5073260;28;20055;-78
2024/01/06 05:50:45;;;;;;;16.13;9.35;;;2.60;99.90;;;;;;5072332;28;20203;-78
2024/01/06 05:53:14;;;;;;;18.38;9.85;;;2.60;99.90;;;;;;5072076;28;20083;-77
2024/01/06 05:55:39;;;;;;;15.65;8.77;;;2.60;99.90;;;;;;5071452;28;20531;-78
2024/01/06 05:58:05;;;;;;;14.38;9.30;;;2.60;99.90;;;;;;5072270;28;20094;-77
2024/01/06 06:00:33;;;;;;;16.55;9.23;;;2.50;99.90;;;;;;5071885;28;20048;-78
2024/01/06 06:02:59;;;;;;;17.50;10.98;;;2.50;99.90;;;;;;5072095;28;20052;-78
2024/01/06 06:05:26;;;;;;;18.08;9.90;;;2.60;99.90;;;;;;5072914;28;20468;-77
2024/01/06 06:07:52;;;;;;;16.88;10.63;;;2.60;99.90;;;;;;5072295;28;20052;-77
2024/01/06 06:10:18;;;;;;;18.55;10.15;;;2.60;99.90;;;;;;5072117;28;20051;-78
2024/01/06 06:12:44;;;;;;;15.98;9.63;;;2.60;99.90;;;;;;5073176;28;20048;-77
2024/01/06 06:15:10;;;;;;;16.30;9.38;;;2.60;99.90;;;;;;5072050;28;20055;-77
2024/01/06 06:17:36;;;;;;;15.90;9.52;;;2.50;99.90;;;;;;5071871;28;20048;-77
2024/01/06 06:20:02;;;;;;;21.58;10.85;;;2.60;99.90;;;;;;5071453;28;20139;-78
2024/01/06 06:22:31;;;;;;;17.83;10.52;;;2.60;99.90;;;;;;5072081;28;20048;-78
2024/01/06 06:24:58;;;;;;;16.80;9.98;;;2.60;99.90;;;;;;5055223;28;20056;-77
2024/01/06 06:27:24;;;;;;;16.13;10.02;;;2.60;99.90;;;;;;5071767;28;20131;-78
2024/01/06 06:29:50;;;;;;;17.02;10.38;;;2.60;99.90;;;;;;5071500;28;20122;-78
2024/01/06 06:32:16;;;;;;;16.63;9.88;;;2.60;99.90;;;;;;5071465;28;20052;-78
2024/01/06 06:34:42;;;;;;;15.25;9.30;;;2.60;99.90;;;;;;5071804;28;20048;-78
2024/01/06 06:37:08;;;;;;;16.85;9.68;;;2.60;99.90;;;;;;5071525;28;20045;-77
2024/01/06 06:39:35;;;;;;;14.73;8.80;;;2.60;99.90;;;;;;5071949;28;20047;-78
2024/01/06 06:42:01;;;;;;;16.70;8.85;;;2.90;99.90;;;;;;5071550;28;20083;-77
2024/01/06 06:44:27;;;;;;;14.68;8.60;;;2.60;99.90;;;;;;5071359;28;20131;-78
2024/01/06 06:46:53;;;;;;;13.48;8.50;;;2.60;99.90;;;;;;5071810;28;20144;-77
2024/01/06 06:49:18;;;;;;;13.70;8.68;;;2.60;99.90;;;;;;5071391;28;20429;-78
2024/01/06 06:51:48;;;;;;;15.25;8.82;;;2.60;99.90;;;;;;5071132;28;20106;-77
2024/01/06 06:54:15;;;;;;;16.13;8.93;;;2.60;99.90;;;;;;5071273;28;20059;-78
2024/01/06 06:56:44;;;;;;;16.73;8.52;;;2.60;99.90;;;;;;5071692;28;20508;-77
2024/01/06 06:59:10;;;;;;;14.80;9.65;;;2.60;99.90;;;;;;5071286;28;20055;-78
2024/01/06 07:01:37;;;;;;;19.48;9.25;;;2.60;99.90;;;;;;5071402;28;20516;-77
2024/01/06 07:04:02;;;;;;;15.63;8.25;;;2.60;99.90;;;;;;5071525;28;20507;-78
2024/01/06 07:06:29;;;;;;;14.45;8.75;;;2.60;99.90;;;;;;5074092;28;20044;-78
2024/01/06 07:08:55;;;;;;;14.10;8.20;;;2.60;99.90;;;;;;5075135;28;20084;-78
2024/01/06 07:11:21;;;;;;;15.10;9.38;;;3.10;99.90;;;;;;5075142;28;20492;-78
2024/01/06 07:13:47;;;;;;;17.92;10.05;;;2.60;99.90;;;;;;5075155;28;20051;-78
2024/01/06 07:16:12;;;;;;;17.08;10.27;;;2.60;99.90;;;;;;5075024;28;20055;-78
2024/01/06 07:18:38;;;;;;;14.80;8.70;;;2.60;99.90;;;;;;5074932;28;20438;-77
2024/01/06 07:21:07;;;;;;;18.42;10.68;;;2.60;99.90;;;;;;5074736;28;20483;-78
2024/01/06 07:23:33;;;;;;;15.10;9.02;;;2.60;99.90;;;;;;5074924;28;20052;-77
2024/01/06 07:25:59;;;;;;;17.73;9.90;;;2.70;99.90;;;;;;5074701;28;20398;-77
2024/01/06 07:28:24;;;;;;;17.00;10.18;;;2.60;99.90;;;;;;5074853;28;20432;-77
2024/01/06 07:30:50;;;;;;;18.15;10.13;;;2.60;99.90;;;;;;5074807;28;20048;-78
2024/01/06 07:33:16;;;;;;;16.75;10.20;;;2.70;99.90;;;;;;5075037;28;20135;-78
2024/01/06 07:35:43;;;;;;;17.85;10.13;;;2.60;99.90;;;;;;5074789;28;20504;-78
2024/01/06 07:38:12;;;;;;;16.63;10.07;;;2.70;99.90;;;;;;5075009;28;20045;-78
2024/01/06 07:40:38;;;;;;;20.60;10.43;;;2.70;99.90;;;;;;5074722;28;20173;-78
2024/01/06 07:43:04;;;;;;;16.55;9.90;;;2.70;99.90;;;;;;5074571;28;20063;-77
2024/01/06 07:45:31;;;;;;;16.73;10.07;;;2.70;99.90;;;;;;5074254;28;20132;-78
2024/01/06 07:48:00;;;;;;;18.30;10.30;;;2.70;99.90;;;;;;5063062;28;20045;-77
2024/01/06 07:50:26;;;;;;;14.90;9.23;;;2.70;99.90;;;;;;5047309;28;20059;-78
2024/01/06 07:52:52;;;;;;;15.88;9.98;;;2.70;99.90;;;;;;5065163;28;20055;-78
2024/01/06 07:55:18;;;;;;;15.38;9.70;;;2.70;99.90;;;;;;5059827;28;20049;-78
2024/01/06 07:57:44;;;;;;;17.77;11.02;;;2.70;99.90;;;;;;5065734;28;20048;-78
2024/01/06 08:00:14;;;;;;;15.05;9.63;;;2.70;99.90;;;;;;5062043;28;20037;-77
2024/01/06 08:02:42;;;;;;;17.02;10.02;;;2.70;99.90;;;;;;5063081;28;20411;-77
2024/01/06 08:05:08;;;;;;;16.08;10.23;;;2.70;99.90;;;;;;5061933;28;20067;-78
2024/01/06 08:07:34;;;;;;;20.00;10.73;;;2.70;99.90;;;;;;5063632;28;20047;-78
2024/01/06 08:10:00;;;;;;;15.38;10.02;;;2.70;99.90;;;;;;5062812;28;20040;-78
2024/01/06 08:12:26;;;;;;;17.40;10.48;;;2.70;99.90;;;;;;5053960;28;20084;-78
2024/01/06 08:14:51;;;;;;;15.18;9.70;;;2.70;99.90;;;;;;5064730;28;20071;-78
2024/01/06 08:17:17;;;;;;;14.40;9.43;;;2.60;99.90;;;;;;5063659;28;20053;-78
2024/01/06 08:19:43;;;;;;;13.95;9.18;;;2.60;99.90;;;;;;5061272;28;20064;-78
2024/01/06 08:22:09;;;;;;;17.25;9.60;;;2.60;99.90;;;;;;5064100;28;20080;-78
2024/01/06 08:24:34;;;;;;;15.65;9.45;;;2.60;99.90;;;;;;5065143;28;20048;-78
2024/01/06 08:27:00;;;;;;;13.73;9.43;;;2.60;99.90;;;;;;5061357;28;20095;-78
2024/01/06 08:29:25;;;;;;;16.73;9.60;;;2.60;99.90;;;;;;5063463;28;20076;-78
2024/01/06 08:31:52;;;;;;;15.48;9.65;;;2.70;99.90;;;;;;5063583;28;20037;-78
2024/01/06 08:34:18;;;;;;;18.10;10.23;;;2.60;99.90;;;;;;5061613;28;20053;-77
2024/01/06 08:36:44;;;;;;;13.75;9.23;;;2.70;99.90;;;;;;5053632;28;20048;-77
2024/01/06 08:39:10;;;;;;;16.98;9.88;;;2.80;99.90;;;;;;5053909;28;20389;-78
2024/01/06 08:41:35;;;;;;;17.08;10.15;;;2.60;99.90;;;;;;5053403;28;20056;-77
2024/01/06 08:44:01;;;;;;;17.30;9.93;;;2.70;99.90;;;;;;5073697;28;20102;-79
2024/01/06 08:46:27;;;;;;;16.88;10.82;;;2.70;99.90;;;;;;5073412;28;20543;-78
2024/01/06 08:48:52;;;;;;;14.65;9.13;;;2.70;99.90;;;;;;5070420;28;20418;-79
2024/01/06 08:51:20;;;;;;;18.52;10.43;;;2.80;99.90;;;;;;5063565;28;20049;-79
2024/01/06 08:53:46;;;;;;;17.60;11.15;;;2.70;99.90;;;;;;5061546;28;20066;-79
2024/01/06 08:56:11;;;;;;;15.75;11.20;;;2.70;99.90;;;;;;5061518;28;20119;-80
2024/01/06 08:58:37;;;;;;;15.23;9.88;;;3.00;99.90;;;;;;5059340;28;20045;-79
2024/01/06 09:01:03;;;;;;;15.70;9.05;;;2.70;99.90;;;;;;5061502;28;20045;-78
2024/01/06 09:03:28;;;;;;;17.38;10.68;;;2.60;99.90;;;;;;5062567;28;20037;-79
2024/01/06 09:05:56;;;;;;;17.77;10.50;;;2.70;99.90;;;;;;5067029;28;20330;-78
2024/01/06 09:08:22;;;;;;;16.50;10.68;;;2.70;99.90;;;;;;5072606;28;20052;-78
2024/01/06 09:10:47;;;;;;;18.42;11.05;;;2.70;99.90;;;;;;5072873;28;20376;-78
2024/01/06 09:13:13;;;;;;;19.42;10.77;;;2.70;99.90;;;;;;5072794;28;20131;-78
2024/01/06 09:15:39;;;;;;;17.52;10.15;;;2.70;99.90;;;;;;5072412;28;20376;-78
2024/01/06 09:18:04;;;;;;;16.67;9.82;;;2.70;99.90;;;;;;5072480;28;20062;-78
2024/01/06 09:20:30;;;;;;;17.92;10.40;;;2.70;99.90;;;;;;5067552;28;20048;-79
2024/01/06 09:22:56;;;;;;;18.83;11.38;;;2.70;99.90;;;;;;5052390;28;20057;-78
2024/01/06 09:25:24;;;;;;;17.50;11.20;;;2.70;99.90;;;;;;5052369;28;20051;-79
2024/01/06 09:27:51;;;;;;;16.75;10.32;;;2.70;99.90;;;;;;5054550;28;20037;-79
2024/01/06 09:30:16;;;;;;;16.98;9.35;;;2.70;99.90;;;;;;5042496;28;20064;-78
2024/01/06 09:32:42;;;;;;;18.60;10.95;;;2.70;99.90;;;;;;5061938;28;20044;-79
2024/01/06 09:35:08;;;;;;;18.73;12.30;;;2.70;99.90;;;;;;5061461;28;20037;-79
2024/01/06 09:37:33;;;;;;;16.55;10.73;;;2.70;99.90;;;;;;5062808;28;20059;-78
2024/01/06 09:39:59;;;;;;;18.17;11.07;;;2.80;99.90;;;;;;5062869;28;20564;-78
2024/01/06 09:42:25;;;;;;;16.75;10.38;;;2.80;99.90;;;;;;5064759;28;20098;-78
2024/01/06 09:44:51;;;;;;;18.45;11.35;;;2.80;99.90;;;;;;5062270;28;20095;-78
2024/01/06 09:47:18;;;;;;;18.48;11.50;;;2.70;99.90;;;;;;5057471;28;20040;-78
2024/01/06 09:49:49;;;;;;;17.17;11.20;;;2.80;99.90;;;;;;5059757;28;20052;-78
2024/01/06 09:52:19;;;;;;;18.98;12.02;;;2.80;99.90;;;;;;5061041;28;20055;-78
2024/01/06 09:54:52;;;;;;;20.13;11.70;;;2.80;99.90;;;;;;5062402;28;20112;-78
2024/01/06 09:57:18;;;;;;;19.45;10.85;;;2.80;99.90;;;;;;5062955;28;20499;-79
2024/01/06 09:59:47;;;;;;;17.63;10.52;;;2.70;99.90;;;;;;5063171;28;20045;-78
2024/01/06 10:02:16;;;;;;;17.05;10.38;;;2.70;99.90;;;;;;5060541;28;20041;-78
2024/01/06 10:04:45;;;;;;;17.85;11.27;;;2.70;99.90;;;;;;5063180;28;20037;-78
2024/01/06 10:07:13;;;;;;;16.77;11.27;;;2.70;99.90;;;;;;5066651;28;20041;-80
2024/01/06 10:09:41;;;;;;;17.73;11.10;;;2.70;99.90;;;;;;5073491;28;20048;-80
2024/01/06 10:12:07;;;;;;;19.73;11.50;;;2.80;99.90;;;;;;5063716;28;20503;-79
2024/01/06 10:14:33;;;;;;;17.35;10.77;;;2.80;99.90;;;;;;5060107;28;20079;-78
2024/01/06 10:16:58;;;;;;;17.00;10.35;;;2.80;99.90;;;;;;5069258;28;20149;-78
2024/01/06 10:19:24;;;;;;;18.00;10.65;;;2.80;99.90;;;;;;5077002;28;20442;-78
2024/01/06 10:21:50;;;;;;;18.17;10.02;;;3.10;99.90;;;;;;5076300;28;20569;-78
2024/01/06 10:24:18;;;;;;;16.38;10.30;;;2.80;99.90;;;;;;5078573;28;20088;-79
2024/01/06 10:26:45;;;;;;;17.70;10.57;;;2.80;99.90;;;;;;5076795;28;20102;-79
2024/01/06 10:29:13;;;;;;;17.85;11.02;;;2.70;99.90;;;;;;5079457;28;20043;-79
2024/01/06 10:31:38;;;;;;;15.13;9.50;;;2.80;99.90;;;;;;5071415;28;20102;-78
2024/01/06 10:34:05;;;;;;;17.70;11.25;;;2.80;99.90;;;;;;5081737;28;20083;-78
2024/01/06 10:36:31;;;;;;;17.83;11.02;;;2.70;99.90;;;;;;5075888;28;20073;-78
2024/01/06 10:38:57;;;;;;;18.33;10.70;;;2.80;99.90;;;;;;5073158;28;20055;-78
2024/01/06 10:41:23;;;;;;;17.48;10.18;;;2.70;99.90;;;;;;5074480;28;20072;-79
2024/01/06 10:43:51;;;;;;;18.67;11.32;;;2.70;99.90;;;;;;5065847;28;20626;-79
2024/01/06 10:46:19;;;;;;;17.50;10.98;;;2.80;99.90;;;;;;5062361;28;20059;-80
2024/01/06 10:48:46;;;;;;;19.05;10.77;;;3.00;99.90;;;;;;5079228;28;20037;-84
2024/01/06 10:51:13;;;;;;;19.88;9.93;;;2.80;99.90;;;;;;5061808;28;20067;-81
2024/01/06 10:53:41;;;;;;;19.25;11.05;;;2.70;99.90;;;;;;5080134;28;20048;-78
2024/01/06 10:56:07;;;;;;;15.73;10.40;;;2.80;99.90;;;;;;5077588;28;20049;-78
2024/01/06 10:58:42;;;;;;;15.82;9.90;;;2.80;99.90;;;;;;5068985;28;20064;-76
2024/01/06 11:01:09;;;;;;;15.82;10.00;;;2.90;99.90;;;;;;5068379;28;20439;-77
2024/01/06 11:03:38;;;;;;;15.45;9.25;;;2.80;99.90;;;;;;5068747;28;20173;-76
2024/01/06 11:06:10;;;;;;;15.75;9.50;;;2.80;99.90;;;;;;5063644;28;20040;-75
2024/01/06 11:09:00;;;;;;;12.70;7.97;;;2.80;99.90;;;;;;5068758;28;20052;-77
2024/01/06 11:11:27;;;;;;;14.18;8.50;;;2.80;99.90;;;;;;5064910;28;20056;-76
2024/01/06 11:13:52;;;;;;;14.38;8.70;;;2.80;99.90;;;;;;5070688;28;20147;-77
2024/01/06 11:16:37;;;;;;;14.00;9.15;;;2.80;99.90;;;;;;5072561;28;20127;-77
2024/01/06 11:19:43;;;;;;;15.98;9.40;;;2.80;99.90;;;;;;5076433;28;20036;-79
2024/01/06 11:22:21;;;;;;;15.68;9.45;;;2.90;99.90;;;;;;5070394;28;20060;-78
2024/01/06 11:24:52;;;;;;;17.38;9.50;;;2.90;99.90;;;;;;5077419;28;20488;-80
2024/01/06 11:27:23;;;;;;;14.25;9.35;;;2.90;99.90;;;;;;5067350;28;20048;-76
2024/01/06 11:29:52;;;;;;;16.13;9.38;;;2.90;99.90;;;;;;5068505;28;20041;-76
2024/01/06 11:32:39;;;;;;;13.70;8.77;;;2.80;99.90;;;;;;5066630;28;20625;-76
2024/01/06 11:35:09;;;;;;;15.93;9.48;;;2.80;99.90;;;;;;5068240;28;20043;-76
2024/01/06 11:37:56;;;;;;;18.20;10.63;;;2.90;99.90;;;;;;5066866;28;20131;-76
2024/01/06 11:40:25;;;;;;;16.70;10.48;;;2.90;99.90;;;;;;5068051;28;20044;-75
2024/01/06 11:43:09;;;;;;;18.52;10.57;;;2.90;99.90;;;;;;5068309;28;20063;-76
2024/01/06 11:45:37;;;;;;;14.93;9.40;;;2.90;99.90;;;;;;5068596;28;20079;-76
2024/01/06 11:48:07;;;;;;;15.20;9.85;;;2.90;99.90;;;;;;5068469;28;20044;-76
2024/01/06 11:50:35;;;;;;;16.58;8.95;;;2.90;99.90;;;;;;5068775;28;20045;-76
2024/01/06 11:53:02;;;;;;;15.13;9.15;;;2.90;99.90;;;;;;5070701;28;20053;-76
2024/01/06 11:55:28;;;;;;;14.77;9.10;;;3.00;99.90;;;;;;5074318;28;20376;-75
2024/01/06 11:57:57;;;;;;;14.77;9.07;;;2.90;99.90;;;;;;5073572;28;20400;-77
2024/01/06 12:00:23;;;;;;;13.75;9.40;;;3.00;99.90;;;;;;5073408;28;20123;-76
2024/01/06 12:02:49;;;;;;;18.42;10.13;;;3.00;99.90;;;;;;5074844;28;20358;-76
2024/01/06 12:05:17;;;;;;;14.60;9.13;;;2.90;99.90;;;;;;5073877;28;20052;-78
2024/01/06 12:07:53;;;;;;;16.10;9.50;;;2.90;99.90;;;;;;5073655;28;20132;-76
2024/01/06 12:10:21;;;;;;;13.57;9.35;;;2.90;99.90;;;;;;5073288;28;20090;-76
2024/01/06 12:13:02;;;;;;;15.88;10.02;;;2.90;99.90;;;;;;5073254;28;20059;-76
2024/01/06 12:15:30;;;;;;;14.75;8.98;;;2.90;99.90;;;;;;5073312;28;20634;-76
2024/01/06 12:17:56;;;;;;;15.18;9.30;;;2.90;99.90;;;;;;5073088;28;20131;-76
2024/01/06 12:20:23;;;;;;;16.05;10.70;;;2.80;99.90;;;;;;5072636;28;20091;-77
2024/01/06 12:22:49;;;;;;;16.90;10.30;;;2.90;99.90;;;;;;5073174;28;20052;-75
2024/01/06 12:25:15;;;;;;;14.60;9.65;;;2.80;99.90;;;;;;5072906;28;20067;-76
2024/01/06 12:27:48;;;;;;;14.82;9.00;;;2.90;99.90;;;;;;5072989;28;20558;-76
2024/01/06 12:30:16;;;;;;;15.30;9.27;;;2.90;99.90;;;;;;5072777;28;20040;-76
2024/01/06 12:32:43;;;;;;;15.05;9.80;;;2.90;99.90;;;;;;5073044;28;20562;-76
2024/01/06 12:35:10;;;;;;;15.40;9.63;;;2.90;99.90;;;;;;5073836;28;20056;-76
2024/01/06 12:37:36;;;;;;;15.68;9.07;;;2.90;99.90;;;;;;5072986;28;20666;-76